sensor_id;sensor_type;location;lat;lon;timestamp;temperature;humidity
58413;DHT22;44209;52.952;6.790;2022-12-13T00:01:25;-2.90;99.90
58413;DHT22;44209;52.952;6.790;2022-12-13T00:03:55;-2.90;99.90
58413;DHT22;44209;52.952;6.790;2022-12-13T00:06:22;-2.90;99.90
58413;DHT22;44209;52.952;6.790;2022-12-13T00:08:48;-3.00;99.90
58413;DHT22;44209;52.952;6.790;2022-12-13T00:11:14;-3.00;99.90
58413;DHT22;44209;52.952;6.790;2022-12-13T00:13:41;-3.10;99.90
58413;DHT22;44209;52.952;6.790;2022-12-13T00:16:10;-3.00;99.90
58413;DHT22;44209;52.952;6.790;2022-12-13T00:18:36;-3.00;99.90
58413;DHT22;44209;52.952;6.790;2022-12-13T00:21:07;-3.10;99.90
58413;DHT22;44209;52.952;6.790;2022-12-13T00:23:33;-3.10;99.90
58413;DHT22;44209;52.952;6.790;2022-12-13T00:26:09;-3.10;99.90
58413;DHT22;44209;52.952;6.790;2022-12-13T00:28:35;-3.10;99.90
58413;DHT22;44209;52.952;6.790;2022-12-13T00:31:01;-3.10;99.90
58413;DHT22;44209;52.952;6.790;2022-12-13T00:33:28;-3.10;99.90
58413;DHT22;44209;52.952;6.790;2022-12-13T00:35:54;-3.10;99.90
58413;DHT22;44209;52.952;6.790;2022-12-13T00:38:21;-3.10;99.90
58413;DHT22;44209;52.952;6.790;2022-12-13T00:40:46;-3.10;99.90
58413;DHT22;44209;52.952;6.790;2022-12-13T00:43:12;-3.20;99.90
58413;DHT22;44209;52.952;6.790;2022-12-13T00:45:39;-3.20;99.90
58413;DHT22;44209;52.952;6.790;2022-12-13T00:48:05;-3.20;99.90
58413;DHT22;44209;52.952;6.790;2022-12-13T00:50:31;-3.20;99.90
58413;DHT22;44209;52.952;6.790;2022-12-13T00:52:58;-3.20;99.90
58413;DHT22;44209;52.952;6.790;2022-12-13T00:55:24;-3.30;99.90
58413;DHT22;44209;52.952;6.790;2022-12-13T00:57:50;-3.30;99.90
58413;DHT22;44209;52.952;6.790;2022-12-13T01:00:16;-3.30;99.90
58413;DHT22;44209;52.952;6.790;2022-12-13T01:02:42;-3.30;99.90
58413;DHT22;44209;52.952;6.790;2022-12-13T01:05:09;-3.30;99.90
58413;DHT22;44209;52.952;6.790;2022-12-13T01:07:35;-3.30;99.90
58413;DHT22;44209;52.952;6.790;2022-12-13T01:10:02;-3.30;99.90
58413;DHT22;44209;52.952;6.790;2022-12-13T01:12:28;-3.30;99.90
58413;DHT22;44209;52.952;6.790;2022-12-13T01:14:54;-3.20;99.90
58413;DHT22;44209;52.952;6.790;2022-12-13T01:17:19;-3.20;99.90
58413;DHT22;44209;52.952;6.790;2022-12-13T01:19:45;-3.20;99.90
58413;DHT22;44209;52.952;6.790;2022-12-13T01:22:11;-3.20;99.90
58413;DHT22;44209;52.952;6.790;2022-12-13T01:24:37;-3.30;99.90
58413;DHT22;44209;52.952;6.790;2022-12-13T01:27:03;-3.30;99.90
58413;DHT22;44209;52.952;6.790;2022-12-13T01:29:29;-3.20;99.90
58413;DHT22;44209;52.952;6.790;2022-12-13T01:31:55;-3.30;99.90
58413;DHT22;44209;52.952;6.790;2022-12-13T01:34:22;-3.30;99.90
58413;DHT22;44209;52.952;6.790;2022-12-13T01:36:48;-3.30;99.90
58413;DHT22;44209;52.952;6.790;2022-12-13T01:39:16;-3.30;99.90
58413;DHT22;44209;52.952;6.790;2022-12-13T01:41:47;-3.40;99.90
58413;DHT22;44209;52.952;6.790;2022-12-13T01:47:40;-3.50;99.90
58413;DHT22;44209;52.952;6.790;2022-12-13T01:50:30;-3.60;99.90
58413;DHT22;44209;52.952;6.790;2022-12-13T01:52:57;-3.50;99.90
58413;DHT22;44209;52.952;6.790;2022-12-13T01:55:26;-3.60;99.90
58413;DHT22;44209;52.952;6.790;2022-12-13T01:57:57;-3.60;99.90
58413;DHT22;44209;52.952;6.790;2022-12-13T02:00:25;-3.50;99.90
58413;DHT22;44209;52.952;6.790;2022-12-13T02:02:52;-3.60;99.90
58413;DHT22;44209;52.952;6.790;2022-12-13T02:05:38;-3.60;99.90
58413;DHT22;44209;52.952;6.790;2022-12-13T02:08:07;-3.60;99.90
58413;DHT22;44209;52.952;6.790;2022-12-13T02:10:34;-3.60;99.90
58413;DHT22;44209;52.952;6.790;2022-12-13T02:13:00;-3.60;99.90
58413;DHT22;44209;52.952;6.790;2022-12-13T02:15:34;-3.60;99.90
58413;DHT22;44209;52.952;6.790;2022-12-13T02:34:47;-3.70;99.90
58413;DHT22;44209;52.952;6.790;2022-12-13T02:37:26;-3.80;99.90
58413;DHT22;44209;52.952;6.790;2022-12-13T02:43:11;-3.80;99.90
58413;DHT22;44209;52.952;6.790;2022-12-13T02:45:48;-3.80;99.90
58413;DHT22;44209;52.952;6.790;2022-12-13T02:48:24;-3.80;99.90
58413;DHT22;44209;52.952;6.790;2022-12-13T02:50:51;-3.90;99.90
58413;DHT22;44209;52.952;6.790;2022-12-13T02:53:19;-3.90;99.90
58413;DHT22;44209;52.952;6.790;2022-12-13T02:55:46;-3.90;99.90
58413;DHT22;44209;52.952;6.790;2022-12-13T02:58:14;-3.90;99.90
58413;DHT22;44209;52.952;6.790;2022-12-13T03:05:50;-4.00;99.90
58413;DHT22;44209;52.952;6.790;2022-12-13T03:09:34;-4.00;99.90
58413;DHT22;44209;52.952;6.790;2022-12-13T03:14:41;-4.00;99.90
58413;DHT22;44209;52.952;6.790;2022-12-13T03:17:12;-4.00;99.90
58413;DHT22;44209;52.952;6.790;2022-12-13T03:19:41;-4.00;99.90
58413;DHT22;44209;52.952;6.790;2022-12-13T03:22:07;-4.00;99.90
58413;DHT22;44209;52.952;6.790;2022-12-13T03:24:32;-3.90;99.90
58413;DHT22;44209;52.952;6.790;2022-12-13T03:26:58;-3.90;99.90
58413;DHT22;44209;52.952;6.790;2022-12-13T03:29:24;-3.80;99.90
58413;DHT22;44209;52.952;6.790;2022-12-13T03:31:51;-3.90;99.90
58413;DHT22;44209;52.952;6.790;2022-12-13T03:34:16;-3.90;99.90
58413;DHT22;44209;52.952;6.790;2022-12-13T03:36:42;-3.90;99.90
58413;DHT22;44209;52.952;6.790;2022-12-13T03:39:08;-4.00;99.90
58413;DHT22;44209;52.952;6.790;2022-12-13T03:41:33;-4.00;99.90
58413;DHT22;44209;52.952;6.790;2022-12-13T03:44:05;-4.10;99.90
58413;DHT22;44209;52.952;6.790;2022-12-13T03:46:31;-4.10;99.90
58413;DHT22;44209;52.952;6.790;2022-12-13T03:48:57;-4.10;99.90
58413;DHT22;44209;52.952;6.790;2022-12-13T03:51:23;-4.00;99.90
58413;DHT22;44209;52.952;6.790;2022-12-13T03:53:49;-4.00;99.90
58413;DHT22;44209;52.952;6.790;2022-12-13T03:56:14;-4.00;99.90
58413;DHT22;44209;52.952;6.790;2022-12-13T03:58:40;-4.00;99.90
58413;DHT22;44209;52.952;6.790;2022-12-13T04:01:11;-4.00;99.90
58413;DHT22;44209;52.952;6.790;2022-12-13T04:03:38;-4.00;99.90
58413;DHT22;44209;52.952;6.790;2022-12-13T04:06:05;-4.00;99.90
58413;DHT22;44209;52.952;6.790;2022-12-13T04:08:31;-4.00;99.90
58413;DHT22;44209;52.952;6.790;2022-12-13T04:10:57;-4.00;99.90
58413;DHT22;44209;52.952;6.790;2022-12-13T04:13:23;-4.00;99.90
58413;DHT22;44209;52.952;6.790;2022-12-13T04:16:01;-4.00;99.90
58413;DHT22;44209;52.952;6.790;2022-12-13T04:18:27;-3.90;99.90
58413;DHT22;44209;52.952;6.790;2022-12-13T04:20:53;-3.90;99.90
58413;DHT22;44209;52.952;6.790;2022-12-13T04:23:18;-3.90;99.90
58413;DHT22;44209;52.952;6.790;2022-12-13T04:25:44;-3.90;99.90
58413;DHT22;44209;52.952;6.790;2022-12-13T04:28:10;-3.90;99.90
58413;DHT22;44209;52.952;6.790;2022-12-13T04:30:36;-3.80;99.90
58413;DHT22;44209;52.952;6.790;2022-12-13T04:33:02;-3.90;99.90
58413;DHT22;44209;52.952;6.790;2022-12-13T04:35:27;-3.90;99.90
58413;DHT22;44209;52.952;6.790;2022-12-13T04:37:53;-3.90;99.90
58413;DHT22;44209;52.952;6.790;2022-12-13T04:40:19;-3.90;99.90
58413;DHT22;44209;52.952;6.790;2022-12-13T04:42:45;-4.00;99.90
58413;DHT22;44209;52.952;6.790;2022-12-13T04:45:17;-4.00;99.90
58413;DHT22;44209;52.952;6.790;2022-12-13T04:47:42;-3.90;99.90
58413;DHT22;44209;52.952;6.790;2022-12-13T04:50:09;-4.00;99.90
58413;DHT22;44209;52.952;6.790;2022-12-13T04:52:35;-3.90;99.90
58413;DHT22;44209;52.952;6.790;2022-12-13T04:55:02;-3.90;99.90
58413;DHT22;44209;52.952;6.790;2022-12-13T04:57:28;-3.90;99.90
58413;DHT22;44209;52.952;6.790;2022-12-13T04:59:53;-4.00;99.90
58413;DHT22;44209;52.952;6.790;2022-12-13T05:02:19;-3.90;99.90
58413;DHT22;44209;52.952;6.790;2022-12-13T05:04:45;-3.90;99.90
58413;DHT22;44209;52.952;6.790;2022-12-13T05:07:11;-3.90;99.90
58413;DHT22;44209;52.952;6.790;2022-12-13T05:09:36;-3.90;99.90
58413;DHT22;44209;52.952;6.790;2022-12-13T05:12:02;-3.90;99.90
58413;DHT22;44209;52.952;6.790;2022-12-13T05:14:31;-3.90;99.90
58413;DHT22;44209;52.952;6.790;2022-12-13T05:16:58;-3.90;99.90
58413;DHT22;44209;52.952;6.790;2022-12-13T05:19:24;-3.90;99.90
58413;DHT22;44209;52.952;6.790;2022-12-13T05:21:50;-3.90;99.90
58413;DHT22;44209;52.952;6.790;2022-12-13T05:24:16;-3.90;99.90
58413;DHT22;44209;52.952;6.790;2022-12-13T05:26:41;-3.90;99.90
58413;DHT22;44209;52.952;6.790;2022-12-13T05:29:07;-3.80;99.90
58413;DHT22;44209;52.952;6.790;2022-12-13T05:31:33;-3.90;99.90
58413;DHT22;44209;52.952;6.790;2022-12-13T05:33:58;-3.80;99.90
58413;DHT22;44209;52.952;6.790;2022-12-13T05:36:24;-3.90;99.90
58413;DHT22;44209;52.952;6.790;2022-12-13T05:38:51;-3.80;99.90
58413;DHT22;44209;52.952;6.790;2022-12-13T05:41:21;-3.80;99.90
58413;DHT22;44209;52.952;6.790;2022-12-13T05:43:49;-3.90;99.90
58413;DHT22;44209;52.952;6.790;2022-12-13T05:46:15;-3.90;99.90
58413;DHT22;44209;52.952;6.790;2022-12-13T05:48:41;-4.00;99.90
58413;DHT22;44209;52.952;6.790;2022-12-13T05:51:07;-4.00;99.90
58413;DHT22;44209;52.952;6.790;2022-12-13T05:53:33;-4.00;99.90
58413;DHT22;44209;52.952;6.790;2022-12-13T05:56:02;-4.00;99.90
58413;DHT22;44209;52.952;6.790;2022-12-13T05:58:27;-4.10;99.90
58413;DHT22;44209;52.952;6.790;2022-12-13T06:00:53;-4.10;99.90
58413;DHT22;44209;52.952;6.790;2022-12-13T06:03:19;-4.10;99.90
58413;DHT22;44209;52.952;6.790;2022-12-13T06:05:45;-4.10;99.90
58413;DHT22;44209;52.952;6.790;2022-12-13T06:08:10;-4.10;99.90
58413;DHT22;44209;52.952;6.790;2022-12-13T06:10:36;-4.10;99.90
58413;DHT22;44209;52.952;6.790;2022-12-13T06:13:03;-4.10;99.90
58413;DHT22;44209;52.952;6.790;2022-12-13T06:15:30;-4.10;99.90
58413;DHT22;44209;52.952;6.790;2022-12-13T06:17:58;-4.10;99.90
58413;DHT22;44209;52.952;6.790;2022-12-13T06:20:24;-4.10;99.90
58413;DHT22;44209;52.952;6.790;2022-12-13T06:22:49;-4.10;99.90
58413;DHT22;44209;52.952;6.790;2022-12-13T06:25:15;-4.10;99.90
58413;DHT22;44209;52.952;6.790;2022-12-13T06:27:41;-4.10;99.90
58413;DHT22;44209;52.952;6.790;2022-12-13T06:30:10;-4.10;99.90
58413;DHT22;44209;52.952;6.790;2022-12-13T06:32:36;-4.10;99.90
58413;DHT22;44209;52.952;6.790;2022-12-13T06:35:02;-4.10;99.90
58413;DHT22;44209;52.952;6.790;2022-12-13T06:37:27;-4.10;99.90
58413;DHT22;44209;52.952;6.790;2022-12-13T06:39:53;-4.10;99.90
58413;DHT22;44209;52.952;6.790;2022-12-13T06:42:19;-4.10;99.90
58413;DHT22;44209;52.952;6.790;2022-12-13T06:44:44;-4.10;99.90
58413;DHT22;44209;52.952;6.790;2022-12-13T06:47:10;-4.10;99.90
58413;DHT22;44209;52.952;6.790;2022-12-13T06:49:36;-4.10;99.90
58413;DHT22;44209;52.952;6.790;2022-12-13T06:52:03;-4.10;99.90
58413;DHT22;44209;52.952;6.790;2022-12-13T06:54:28;-4.20;99.90
58413;DHT22;44209;52.952;6.790;2022-12-13T06:56:54;-4.20;99.90
58413;DHT22;44209;52.952;6.790;2022-12-13T06:59:20;-4.20;99.90
58413;DHT22;44209;52.952;6.790;2022-12-13T07:01:46;-4.20;99.90
58413;DHT22;44209;52.952;6.790;2022-12-13T07:04:11;-4.20;99.90
58413;DHT22;44209;52.952;6.790;2022-12-13T07:06:37;-4.20;99.90
58413;DHT22;44209;52.952;6.790;2022-12-13T07:09:03;-4.10;99.90
58413;DHT22;44209;52.952;6.790;2022-12-13T07:11:31;-4.10;99.90
58413;DHT22;44209;52.952;6.790;2022-12-13T07:13:58;-4.10;99.90
58413;DHT22;44209;52.952;6.790;2022-12-13T07:16:24;-4.10;99.90
58413;DHT22;44209;52.952;6.790;2022-12-13T07:18:58;-4.10;99.90
58413;DHT22;44209;52.952;6.790;2022-12-13T07:21:24;-4.10;99.90
58413;DHT22;44209;52.952;6.790;2022-12-13T07:23:50;-4.10;99.90
58413;DHT22;44209;52.952;6.790;2022-12-13T07:26:16;-4.10;99.90
58413;DHT22;44209;52.952;6.790;2022-12-13T07:28:42;-4.10;99.90
58413;DHT22;44209;52.952;6.790;2022-12-13T07:31:09;-4.00;99.90
58413;DHT22;44209;52.952;6.790;2022-12-13T07:33:35;-4.10;99.90
58413;DHT22;44209;52.952;6.790;2022-12-13T07:36:07;-4.00;99.90
58413;DHT22;44209;52.952;6.790;2022-12-13T07:38:34;-4.00;99.90
58413;DHT22;44209;52.952;6.790;2022-12-13T07:41:00;-4.10;99.90
58413;DHT22;44209;52.952;6.790;2022-12-13T07:43:26;-4.00;99.90
58413;DHT22;44209;52.952;6.790;2022-12-13T07:45:54;-4.00;99.90
58413;DHT22;44209;52.952;6.790;2022-12-13T07:48:22;-4.10;99.90
58413;DHT22;44209;52.952;6.790;2022-12-13T07:50:47;-4.10;99.90
58413;DHT22;44209;52.952;6.790;2022-12-13T07:53:13;-4.10;99.90
58413;DHT22;44209;52.952;6.790;2022-12-13T07:55:39;-4.10;99.90
58413;DHT22;44209;52.952;6.790;2022-12-13T07:58:06;-4.00;99.90
58413;DHT22;44209;52.952;6.790;2022-12-13T08:00:32;-4.00;99.90
58413;DHT22;44209;52.952;6.790;2022-12-13T08:02:59;-3.90;99.90
58413;DHT22;44209;52.952;6.790;2022-12-13T08:05:26;-3.90;99.90
58413;DHT22;44209;52.952;6.790;2022-12-13T08:07:52;-3.90;99.90
58413;DHT22;44209;52.952;6.790;2022-12-13T08:10:18;-3.90;99.90
58413;DHT22;44209;52.952;6.790;2022-12-13T08:12:44;-3.80;99.90
58413;DHT22;44209;52.952;6.790;2022-12-13T08:15:10;-3.80;99.90
58413;DHT22;44209;52.952;6.790;2022-12-13T08:17:36;-3.80;99.90
58413;DHT22;44209;52.952;6.790;2022-12-13T08:20:02;-3.70;99.90
58413;DHT22;44209;52.952;6.790;2022-12-13T08:22:28;-3.70;99.90
58413;DHT22;44209;52.952;6.790;2022-12-13T08:24:54;-3.70;99.90
58413;DHT22;44209;52.952;6.790;2022-12-13T08:27:19;-3.70;99.90
58413;DHT22;44209;52.952;6.790;2022-12-13T08:29:45;-3.70;99.90
58413;DHT22;44209;52.952;6.790;2022-12-13T08:32:12;-3.70;99.90
58413;DHT22;44209;52.952;6.790;2022-12-13T08:34:38;-3.60;99.90
58413;DHT22;44209;52.952;6.790;2022-12-13T08:37:05;-3.60;99.90
58413;DHT22;44209;52.952;6.790;2022-12-13T08:39:33;-3.50;99.90
58413;DHT22;44209;52.952;6.790;2022-12-13T08:41:59;-3.50;99.90
58413;DHT22;44209;52.952;6.790;2022-12-13T08:44:24;-3.40;99.90
58413;DHT22;44209;52.952;6.790;2022-12-13T08:46:50;-3.40;99.90
58413;DHT22;44209;52.952;6.790;2022-12-13T08:49:16;-3.30;99.90
58413;DHT22;44209;52.952;6.790;2022-12-13T08:51:41;-3.20;99.90
58413;DHT22;44209;52.952;6.790;2022-12-13T08:54:07;-3.20;99.90
58413;DHT22;44209;52.952;6.790;2022-12-13T08:56:33;-3.10;99.90
58413;DHT22;44209;52.952;6.790;2022-12-13T08:58:58;-3.00;99.90
58413;DHT22;44209;52.952;6.790;2022-12-13T09:01:24;-3.00;99.90
58413;DHT22;44209;52.952;6.790;2022-12-13T09:03:50;-2.90;99.90
58413;DHT22;44209;52.952;6.790;2022-12-13T09:06:16;-2.80;99.90
58413;DHT22;44209;52.952;6.790;2022-12-13T09:08:42;-2.70;99.90
58413;DHT22;44209;52.952;6.790;2022-12-13T09:11:10;-2.60;99.90
58413;DHT22;44209;52.952;6.790;2022-12-13T09:13:37;-2.60;99.90
58413;DHT22;44209;52.952;6.790;2022-12-13T09:16:08;-2.50;99.90
58413;DHT22;44209;52.952;6.790;2022-12-13T09:18:35;-2.40;99.90
58413;DHT22;44209;52.952;6.790;2022-12-13T09:21:08;-2.40;99.90
58413;DHT22;44209;52.952;6.790;2022-12-13T09:23:35;-2.30;99.90
58413;DHT22;44209;52.952;6.790;2022-12-13T09:26:01;-2.30;99.90
58413;DHT22;44209;52.952;6.790;2022-12-13T09:28:27;-2.20;99.90
58413;DHT22;44209;52.952;6.790;2022-12-13T09:30:54;-2.10;99.90
58413;DHT22;44209;52.952;6.790;2022-12-13T09:33:20;-2.10;99.90
58413;DHT22;44209;52.952;6.790;2022-12-13T09:35:46;-2.10;99.90
58413;DHT22;44209;52.952;6.790;2022-12-13T09:38:12;-2.00;99.90
58413;DHT22;44209;52.952;6.790;2022-12-13T09:40:40;-2.00;99.90
58413;DHT22;44209;52.952;6.790;2022-12-13T09:43:12;-1.90;99.90
58413;DHT22;44209;52.952;6.790;2022-12-13T09:45:44;-1.90;99.90
58413;DHT22;44209;52.952;6.790;2022-12-13T09:48:15;-1.90;99.90
58413;DHT22;44209;52.952;6.790;2022-12-13T09:50:41;-1.80;99.90
58413;DHT22;44209;52.952;6.790;2022-12-13T09:53:07;-1.80;99.90
58413;DHT22;44209;52.952;6.790;2022-12-13T09:55:44;-1.70;99.90
58413;DHT22;44209;52.952;6.790;2022-12-13T09:58:22;-1.60;99.90
58413;DHT22;44209;52.952;6.790;2022-12-13T10:00:51;-1.60;99.90
58413;DHT22;44209;52.952;6.790;2022-12-13T10:03:18;-1.50;99.90
58413;DHT22;44209;52.952;6.790;2022-12-13T10:05:59;-1.40;99.90
58413;DHT22;44209;52.952;6.790;2022-12-13T10:08:37;-1.40;99.90
58413;DHT22;44209;52.952;6.790;2022-12-13T10:11:04;-1.30;99.90
58413;DHT22;44209;52.952;6.790;2022-12-13T10:13:38;-1.30;99.90
58413;DHT22;44209;52.952;6.790;2022-12-13T10:16:12;-1.30;99.90
58413;DHT22;44209;52.952;6.790;2022-12-13T10:18:40;-1.20;99.90
58413;DHT22;44209;52.952;6.790;2022-12-13T10:21:12;-1.10;99.90
58413;DHT22;44209;52.952;6.790;2022-12-13T10:23:42;-1.10;99.90
58413;DHT22;44209;52.952;6.790;2022-12-13T10:26:10;-1.00;99.90
58413;DHT22;44209;52.952;6.790;2022-12-13T10:28:36;-1.00;99.90
58413;DHT22;44209;52.952;6.790;2022-12-13T10:31:02;-0.90;99.90
58413;DHT22;44209;52.952;6.790;2022-12-13T10:33:36;-0.90;99.90
58413;DHT22;44209;52.952;6.790;2022-12-13T10:36:15;-0.90;99.90
58413;DHT22;44209;52.952;6.790;2022-12-13T10:38:43;-0.80;99.90
58413;DHT22;44209;52.952;6.790;2022-12-13T10:41:34;-0.80;99.90
58413;DHT22;44209;52.952;6.790;2022-12-13T10:46:33;-0.70;99.90
58413;DHT22;44209;52.952;6.790;2022-12-13T10:49:00;-0.70;99.90
58413;DHT22;44209;52.952;6.790;2022-12-13T10:51:26;-0.60;99.90
58413;DHT22;44209;52.952;6.790;2022-12-13T10:53:55;-0.60;99.90
58413;DHT22;44209;52.952;6.790;2022-12-13T10:56:31;-0.50;99.90
58413;DHT22;44209;52.952;6.790;2022-12-13T11:01:56;-0.50;99.90
58413;DHT22;44209;52.952;6.790;2022-12-13T11:06:52;-0.40;99.90
58413;DHT22;44209;52.952;6.790;2022-12-13T11:09:32;-0.40;99.90
58413;DHT22;44209;52.952;6.790;2022-12-13T11:12:03;-0.40;99.90
58413;DHT22;44209;52.952;6.790;2022-12-13T11:14:46;-0.30;99.90
58413;DHT22;44209;52.952;6.790;2022-12-13T11:17:16;-0.30;99.90
58413;DHT22;44209;52.952;6.790;2022-12-13T11:22:30;-0.20;99.90
58413;DHT22;44209;52.952;6.790;2022-12-13T11:25:22;-0.20;99.90
58413;DHT22;44209;52.952;6.790;2022-12-13T11:41:27;-0.10;99.90
58413;DHT22;44209;52.952;6.790;2022-12-13T11:43:58;0.00;99.90
58413;DHT22;44209;52.952;6.790;2022-12-13T11:46:40;0.00;99.90
58413;DHT22;44209;52.952;6.790;2022-12-13T11:49:40;0.00;99.90
58413;DHT22;44209;52.952;6.790;2022-12-13T11:55:02;0.10;99.90
58413;DHT22;44209;52.952;6.790;2022-12-13T12:02:48;0.10;99.90
58413;DHT22;44209;52.952;6.790;2022-12-13T12:05:29;0.10;99.90
58413;DHT22;44209;52.952;6.790;2022-12-13T12:10:46;0.20;99.90
58413;DHT22;44209;52.952;6.790;2022-12-13T12:13:49;0.30;99.90
58413;DHT22;44209;52.952;6.790;2022-12-13T12:16:24;0.30;99.90
58413;DHT22;44209;52.952;6.790;2022-12-13T12:18:53;0.30;99.90
58413;DHT22;44209;52.952;6.790;2022-12-13T12:21:34;0.30;99.90
58413;DHT22;44209;52.952;6.790;2022-12-13T12:24:17;0.40;99.90
58413;DHT22;44209;52.952;6.790;2022-12-13T12:37:21;0.50;99.90
58413;DHT22;44209;52.952;6.790;2022-12-13T12:40:02;0.60;99.90
58413;DHT22;44209;52.952;6.790;2022-12-13T12:45:54;0.60;99.90
58413;DHT22;44209;52.952;6.790;2022-12-13T12:51:06;0.70;99.90
58413;DHT22;44209;52.952;6.790;2022-12-13T12:53:58;0.60;99.90
58413;DHT22;44209;52.952;6.790;2022-12-13T12:59:39;0.70;99.90
58413;DHT22;44209;52.952;6.790;2022-12-13T13:02:22;0.70;99.90
58413;DHT22;44209;52.952;6.790;2022-12-13T13:04:55;0.70;99.90
58413;DHT22;44209;52.952;6.790;2022-12-13T13:07:23;0.70;99.90
58413;DHT22;44209;52.952;6.790;2022-12-13T13:09:53;0.70;99.90
58413;DHT22;44209;52.952;6.790;2022-12-13T13:12:20;0.70;99.90
58413;DHT22;44209;52.952;6.790;2022-12-13T13:14:46;0.70;99.90
58413;DHT22;44209;52.952;6.790;2022-12-13T13:19:43;0.70;99.90
58413;DHT22;44209;52.952;6.790;2022-12-13T13:22:42;0.70;99.90
58413;DHT22;44209;52.952;6.790;2022-12-13T13:25:19;0.70;99.90
58413;DHT22;44209;52.952;6.790;2022-12-13T13:27:47;0.70;99.90
58413;DHT22;44209;52.952;6.790;2022-12-13T13:30:21;0.70;99.90
58413;DHT22;44209;52.952;6.790;2022-12-13T13:32:49;0.70;99.90
58413;DHT22;44209;52.952;6.790;2022-12-13T13:37:58;0.70;99.90
58413;DHT22;44209;52.952;6.790;2022-12-13T13:40:35;0.60;99.90
58413;DHT22;44209;52.952;6.790;2022-12-13T13:45:59;0.60;99.90
58413;DHT22;44209;52.952;6.790;2022-12-13T13:48:36;0.60;99.90
58413;DHT22;44209;52.952;6.790;2022-12-13T14:00:16;0.50;99.90
58413;DHT22;44209;52.952;6.790;2022-12-13T14:19:37;0.30;99.90
58413;DHT22;44209;52.952;6.790;2022-12-13T14:22:33;0.30;99.90
58413;DHT22;44209;52.952;6.790;2022-12-13T14:25:35;0.20;99.90
58413;DHT22;44209;52.952;6.790;2022-12-13T14:30:43;0.10;99.90
58413;DHT22;44209;52.952;6.790;2022-12-13T14:33:21;0.10;99.90
58413;DHT22;44209;52.952;6.790;2022-12-13T14:35:56;0.00;99.90
58413;DHT22;44209;52.952;6.790;2022-12-13T14:38:27;0.00;99.90
58413;DHT22;44209;52.952;6.790;2022-12-13T14:40:57;-0.10;99.90
58413;DHT22;44209;52.952;6.790;2022-12-13T14:43:23;-0.10;99.90
58413;DHT22;44209;52.952;6.790;2022-12-13T14:46:03;-0.20;99.90
58413;DHT22;44209;52.952;6.790;2022-12-13T14:48:35;-0.30;99.90
58413;DHT22;44209;52.952;6.790;2022-12-13T14:51:02;-0.30;99.90
58413;DHT22;44209;52.952;6.790;2022-12-13T14:53:38;-0.40;99.90
58413;DHT22;44209;52.952;6.790;2022-12-13T14:56:12;-0.40;99.90
58413;DHT22;44209;52.952;6.790;2022-12-13T14:58:48;-0.50;99.90
58413;DHT22;44209;52.952;6.790;2022-12-13T15:01:51;-0.50;99.90
58413;DHT22;44209;52.952;6.790;2022-12-13T15:09:56;-0.70;99.90
58413;DHT22;44209;52.952;6.790;2022-12-13T15:12:26;-0.80;99.90
58413;DHT22;44209;52.952;6.790;2022-12-13T15:17:32;-0.90;99.90
58413;DHT22;44209;52.952;6.790;2022-12-13T15:19:59;-0.90;99.90
58413;DHT22;44209;52.952;6.790;2022-12-13T15:22:25;-1.00;99.90
58413;DHT22;44209;52.952;6.790;2022-12-13T15:24:52;-1.00;99.90
58413;DHT22;44209;52.952;6.790;2022-12-13T15:27:19;-1.00;99.90
58413;DHT22;44209;52.952;6.790;2022-12-13T15:29:47;-1.00;99.90
58413;DHT22;44209;52.952;6.790;2022-12-13T15:32:15;-1.10;99.90
58413;DHT22;44209;52.952;6.790;2022-12-13T15:34:44;-1.10;99.90
58413;DHT22;44209;52.952;6.790;2022-12-13T15:37:23;-1.20;99.90
58413;DHT22;44209;52.952;6.790;2022-12-13T15:39:54;-1.20;99.90
58413;DHT22;44209;52.952;6.790;2022-12-13T15:42:23;-1.30;99.90
58413;DHT22;44209;52.952;6.790;2022-12-13T15:44:55;-1.30;99.90
58413;DHT22;44209;52.952;6.790;2022-12-13T15:47:22;-1.30;99.90
58413;DHT22;44209;52.952;6.790;2022-12-13T15:57:25;-1.40;99.90
58413;DHT22;44209;52.952;6.790;2022-12-13T16:00:22;-1.40;99.90
58413;DHT22;44209;52.952;6.790;2022-12-13T16:05:29;-1.50;99.90
58413;DHT22;44209;52.952;6.790;2022-12-13T16:07:58;-1.60;99.90
58413;DHT22;44209;52.952;6.790;2022-12-13T16:10:25;-1.60;99.90
58413;DHT22;44209;52.952;6.790;2022-12-13T16:12:56;-1.60;99.90
58413;DHT22;44209;52.952;6.790;2022-12-13T16:15:24;-1.60;99.90
58413;DHT22;44209;52.952;6.790;2022-12-13T16:17:53;-1.80;99.90
58413;DHT22;44209;52.952;6.790;2022-12-13T16:20:20;-1.90;99.90
58413;DHT22;44209;52.952;6.790;2022-12-13T16:22:47;-1.90;99.90
58413;DHT22;44209;52.952;6.790;2022-12-13T16:25:15;-1.90;99.90
58413;DHT22;44209;52.952;6.790;2022-12-13T16:27:42;-1.90;99.90
58413;DHT22;44209;52.952;6.790;2022-12-13T16:30:26;-1.90;99.90
58413;DHT22;44209;52.952;6.790;2022-12-13T16:32:52;-1.90;99.90
58413;DHT22;44209;52.952;6.790;2022-12-13T16:35:19;-1.90;99.90
58413;DHT22;44209;52.952;6.790;2022-12-13T16:37:46;-2.00;99.90
58413;DHT22;44209;52.952;6.790;2022-12-13T16:40:27;-2.10;99.90
58413;DHT22;44209;52.952;6.790;2022-12-13T16:42:58;-2.10;99.90
58413;DHT22;44209;52.952;6.790;2022-12-13T16:45:34;-2.20;99.90
58413;DHT22;44209;52.952;6.790;2022-12-13T16:48:01;-2.20;99.90
58413;DHT22;44209;52.952;6.790;2022-12-13T16:50:29;-2.20;99.90
58413;DHT22;44209;52.952;6.790;2022-12-13T16:52:55;-2.30;99.90
58413;DHT22;44209;52.952;6.790;2022-12-13T16:55:20;-2.30;99.90
58413;DHT22;44209;52.952;6.790;2022-12-13T16:57:57;-2.30;99.90
58413;DHT22;44209;52.952;6.790;2022-12-13T17:00:24;-2.30;99.90
58413;DHT22;44209;52.952;6.790;2022-12-13T17:02:51;-2.30;99.90
58413;DHT22;44209;52.952;6.790;2022-12-13T17:05:17;-2.30;99.90
58413;DHT22;44209;52.952;6.790;2022-12-13T17:07:43;-2.30;99.90
58413;DHT22;44209;52.952;6.790;2022-12-13T17:10:09;-2.30;99.90
58413;DHT22;44209;52.952;6.790;2022-12-13T17:12:35;-2.30;99.90
58413;DHT22;44209;52.952;6.790;2022-12-13T17:15:00;-2.30;99.90
58413;DHT22;44209;52.952;6.790;2022-12-13T17:17:26;-2.40;99.90
58413;DHT22;44209;52.952;6.790;2022-12-13T17:19:52;-2.40;99.90
58413;DHT22;44209;52.952;6.790;2022-12-13T17:22:18;-2.50;99.90
58413;DHT22;44209;52.952;6.790;2022-12-13T17:24:44;-2.50;99.90
58413;DHT22;44209;52.952;6.790;2022-12-13T17:27:10;-2.50;99.90
58413;DHT22;44209;52.952;6.790;2022-12-13T17:29:36;-2.60;99.90
58413;DHT22;44209;52.952;6.790;2022-12-13T17:32:03;-2.60;99.90
58413;DHT22;44209;52.952;6.790;2022-12-13T17:34:28;-2.60;99.90
58413;DHT22;44209;52.952;6.790;2022-12-13T17:36:54;-2.50;99.90
58413;DHT22;44209;52.952;6.790;2022-12-13T17:39:20;-2.50;99.90
58413;DHT22;44209;52.952;6.790;2022-12-13T17:41:46;-2.50;99.90
58413;DHT22;44209;52.952;6.790;2022-12-13T17:44:12;-2.50;99.90
58413;DHT22;44209;52.952;6.790;2022-12-13T17:46:40;-2.60;99.90
58413;DHT22;44209;52.952;6.790;2022-12-13T17:49:06;-2.60;99.90
58413;DHT22;44209;52.952;6.790;2022-12-13T17:51:31;-2.60;99.90
58413;DHT22;44209;52.952;6.790;2022-12-13T17:53:57;-2.60;99.90
58413;DHT22;44209;52.952;6.790;2022-12-13T17:56:23;-2.60;99.90
58413;DHT22;44209;52.952;6.790;2022-12-13T17:58:48;-2.60;99.90
58413;DHT22;44209;52.952;6.790;2022-12-13T18:01:19;-2.60;99.90
58413;DHT22;44209;52.952;6.790;2022-12-13T18:03:45;-2.60;99.90
58413;DHT22;44209;52.952;6.790;2022-12-13T18:06:13;-2.70;99.90